12:39
Airports
History
Links
Donate
Help keep this website running!
PayPal
Bitcoin
Information on this page is community maintained and may be outdated or inaccurate and is intended for reference only or PC simulator navigating.
Always use approved charts for navigating.
99W
Bull Farm
Bull Farm (99W)
Cape Charles, Virginia, United States (23310)
4
Lat/Lng:37° 9' 16.51" N / 75° 57' 24.75" W
37.154586 / -75.956874
Elevation:18'ft 5mMSL
ID / ICAO:99W
Runways:1
Longest:(02-20) 917.3m 3,010ft Grass
Distance To
Airport ID:
Nearby VORs <50NM
Nearby NDBs
Nearby WeatherUpdated 05-23-17 11:51 GMT
Nearby weather at KORF, Norfolk Intl located 22.5 nautical miles from 99W
Altimeter: 29.91
Visibility: 10.0 statute miles
Wind: 10 knots (060°)
Temp: 19°c 66°f
Humidity: 93.9%

METAR: KORF 231151Z 06010KT 10SM BKN006 OVC010 19/18 A2991 RMK AO2 SLP129 70048 T01890183 10194 20183 55000

(Powered by phpweather)
Runway 02 / 20
Dimensions:917.3 x 15.2m 3010' x 50'ft
Surface:Grass
Runway 02 [A]Runway 20 [B]
Heading:010°TH 190°TH
Lat:
Lng:
37° 9' 1.92"N
75° 57' 27.98"W
37° 9' 31.1"N
75° 57' 21.52"W
User Notes and Comments
Google Map
Nearby Airports
4 Scott Farm Strip 5.1 NM
98W NNW 347°
(R) Cherrystone 9.5 NM
24VA NNW 345°
(R) Eagles Nest 10.3 NM
21VA N
4 Kellam Field 21.4 NM
W08 N 11°
(C) Norfolk Intl 22.5 NM
KORF (WX) SW 216°
(R) Langley Afb 22.8 NM
KLFI (WX) WSW 257°
(R) Oceana Nas /apollo Soucek Fiel 23.3 NM
KNTU (WX) S 190°
VFR Chart
Flight Planning at SkyVector.com